Time;durP1;ratioP1;P1;durP2;ratioP2;P2;SDS_P1;SDS_P2;PMS_P1;PMS_P2;Temp;Humidity;BMP_temperature;BMP_pressure;BME280_temperature;BME280_humidity;BME280_pressure;Samples;Min_cycle;Max_cycle;Signal;HPM_P1;HPM_P2
2021/11/21 00:01:49;;;;;;;18.23;12.33;;;7.50;99.90;;;;;;4870221;29;20412;-79
2021/11/21 00:04:15;;;;;;;19.90;11.27;;;7.30;99.90;;;;;;4872972;29;20431;-80
2021/11/21 00:06:44;;;;;;;16.53;10.60;;;7.20;99.90;;;;;;4881739;29;20997;-81
2021/11/21 00:09:11;;;;;;;18.07;11.33;;;7.10;99.90;;;;;;4911054;29;20483;-80
2021/11/21 00:11:40;;;;;;;22.50;11.80;;;7.10;99.90;;;;;;4911445;29;20185;-80
2021/11/21 00:14:31;;;;;;;16.73;10.90;;;7.10;99.90;;;;;;4926326;29;20416;-81
2021/11/21 00:17:17;;;;;;;18.33;9.40;;;7.10;99.90;;;;;;4908601;29;20734;-80
2021/11/21 00:19:49;;;;;;;18.30;11.80;;;7.10;99.90;;;;;;4906891;29;20411;-80
2021/11/21 00:22:19;;;;;;;22.07;10.40;;;7.10;99.90;;;;;;4945442;29;20482;-80
2021/11/21 00:24:48;;;;;;;17.60;11.43;;;7.30;99.90;;;;;;4961084;29;20370;-80
2021/11/21 00:27:21;;;;;;;21.43;12.63;;;7.40;99.90;;;;;;4962484;29;20422;-80
2021/11/21 00:30:11;;;;;;;13.17;10.00;;;7.20;99.90;;;;;;4922689;29;20813;-80
2021/11/21 00:32:38;;;;;;;18.80;11.00;;;7.00;99.90;;;;;;4925954;29;20465;-80
2021/11/21 00:35:10;;;;;;;14.73;9.10;;;7.10;99.90;;;;;;4938613;29;20388;-80
2021/11/21 00:37:49;;;;;;;14.37;9.30;;;7.00;99.90;;;;;;4942696;29;20403;-80
2021/11/21 00:40:52;;;;;;;17.37;11.23;;;7.10;99.90;;;;;;4918797;29;20402;-80
2021/11/21 00:43:29;;;;;;;13.60;9.80;;;7.30;99.90;;;;;;4929631;29;20436;-80
2021/11/21 00:46:04;;;;;;;18.10;10.77;;;7.30;99.90;;;;;;4927769;29;20536;-80
2021/11/21 00:48:57;;;;;;;12.40;9.87;;;7.40;99.90;;;;;;4885046;29;20443;-81
2021/11/21 00:51:49;;;;;;;17.23;9.83;;;7.10;99.90;;;;;;4916077;29;20473;-81
2021/11/21 00:55:04;;;;;;;9.13;8.00;;;7.10;99.90;;;;;;4871774;29;20396;-80
2021/11/21 00:57:34;;;;;;;15.97;10.87;;;7.30;99.90;;;;;;4868703;29;20800;-80
2021/11/21 01:00:10;;;;;;;20.83;11.13;;;7.00;99.90;;;;;;4861686;29;20381;-80
2021/11/21 01:02:39;;;;;;;19.50;10.93;;;6.80;99.90;;;;;;4828830;29;20432;-80
2021/11/21 01:05:11;;;;;;;11.73;8.60;;;6.90;99.90;;;;;;4795900;29;20417;-80
2021/11/21 01:07:43;;;;;;;12.87;9.87;;;6.70;99.90;;;;;;4810533;29;20763;-79
2021/11/21 01:10:20;;;;;;;14.70;11.40;;;6.90;99.90;;;;;;4833960;29;20558;-81
2021/11/21 01:12:59;;;;;;;18.37;10.90;;;7.10;99.90;;;;;;4844923;29;20449;-81
2021/11/21 01:15:35;;;;;;;16.20;10.50;;;7.20;99.90;;;;;;4850214;29;20434;-81
2021/11/21 01:18:02;;;;;;;16.10;11.67;;;7.30;99.90;;;;;;4871434;29;20393;-81
2021/11/21 01:20:35;;;;;;;27.40;11.13;;;7.30;99.90;;;;;;4870180;29;20412;-81
2021/11/21 01:23:23;;;;;;;12.70;11.40;;;7.30;99.90;;;;;;4830950;29;20404;-81
2021/11/21 01:25:51;;;;;;;12.70;10.10;;;7.30;99.90;;;;;;4832359;29;20555;-81
2021/11/21 01:28:17;;;;;;;14.93;10.10;;;7.30;99.90;;;;;;4815614;29;20422;-80
2021/11/21 01:30:52;;;;;;;17.03;11.80;;;7.10;99.90;;;;;;4811417;29;20468;-81
2021/11/21 01:33:24;;;;;;;15.83;12.33;;;7.00;99.90;;;;;;4824906;29;20413;-80
2021/11/21 01:36:01;;;;;;;16.50;10.47;;;7.20;99.90;;;;;;4865873;29;20425;-81
2021/11/21 01:38:33;;;;;;;16.17;10.80;;;6.80;99.90;;;;;;4864988;29;20422;-81
2021/11/21 01:41:06;;;;;;;15.97;11.40;;;7.10;99.90;;;;;;4874062;29;20421;-81
2021/11/21 01:43:36;;;;;;;16.37;10.20;;;7.20;99.90;;;;;;4836150;29;20406;-80
2021/11/21 01:46:07;;;;;;;14.20;9.83;;;7.40;99.90;;;;;;4834711;29;20399;-81
2021/11/21 01:48:36;;;;;;;12.03;9.17;;;7.40;99.90;;;;;;4871666;29;20422;-81
2021/11/21 01:51:08;;;;;;;17.47;11.73;;;7.30;99.90;;;;;;4853111;29;20429;-81
2021/11/21 01:53:36;;;;;;;17.10;10.33;;;7.40;99.90;;;;;;4857903;29;20394;-81
2021/11/21 01:56:23;;;;;;;16.07;11.50;;;7.40;99.90;;;;;;4860120;29;20397;-81
2021/11/21 01:58:51;;;;;;;17.07;10.93;;;7.50;99.90;;;;;;4873657;29;20411;-80
2021/11/21 02:01:24;;;;;;;15.30;12.13;;;7.50;99.90;;;;;;4946486;29;20496;-80
2021/11/21 02:03:56;;;;;;;17.40;10.67;;;7.50;99.90;;;;;;4969457;28;20409;-80
2021/11/21 02:06:31;;;;;;;14.23;10.67;;;7.40;99.90;;;;;;4907533;29;20399;-81
2021/11/21 02:08:57;;;;;;;19.93;11.97;;;7.00;99.90;;;;;;4879027;29;20470;-80
2021/11/21 02:11:27;;;;;;;12.57;9.60;;;6.70;99.90;;;;;;4889967;29;20396;-81
2021/11/21 02:13:55;;;;;;;14.37;10.67;;;6.90;99.90;;;;;;4859896;29;20457;-81
2021/11/21 02:16:50;;;;;;;16.97;11.97;;;7.10;99.90;;;;;;4892003;29;20373;-80
2021/11/21 02:19:21;;;;;;;15.50;9.77;;;7.20;99.90;;;;;;4858770;29;20461;-80
2021/11/21 02:21:47;;;;;;;13.70;9.73;;;7.30;99.90;;;;;;4866857;29;20484;-79
2021/11/21 02:24:24;;;;;;;16.20;10.60;;;7.30;99.90;;;;;;4926171;29;20384;-79
2021/11/21 02:27:01;;;;;;;18.07;10.60;;;7.40;99.90;;;;;;4893448;29;20413;-81
2021/11/21 02:29:31;;;;;;;12.97;11.50;;;7.40;99.90;;;;;;4904404;29;20447;-80
2021/11/21 02:32:01;;;;;;;15.93;10.07;;;7.40;99.90;;;;;;4854369;29;20427;-81
2021/11/21 02:34:28;;;;;;;14.70;10.60;;;6.70;99.90;;;;;;4848461;29;20440;-80
2021/11/21 02:36:55;;;;;;;14.40;10.90;;;6.50;99.90;;;;;;4859533;29;20435;-81
2021/11/21 02:39:42;;;;;;;16.27;10.70;;;6.50;99.90;;;;;;4921467;29;20406;-81
2021/11/21 02:42:25;;;;;;;14.63;9.77;;;6.50;99.90;;;;;;4886828;29;20426;-81
2021/11/21 02:45:02;;;;;;;17.70;10.83;;;6.60;99.90;;;;;;4871652;29;20407;-81
2021/11/21 02:47:34;;;;;;;16.40;10.87;;;6.80;99.90;;;;;;4821719;29;20462;-81
2021/11/21 02:50:11;;;;;;;13.30;11.90;;;7.00;99.90;;;;;;4851622;29;20607;-80
2021/11/21 02:52:41;;;;;;;17.03;10.50;;;6.80;99.90;;;;;;4857482;29;20390;-81
2021/11/21 02:55:19;;;;;;;18.73;11.07;;;6.80;99.90;;;;;;4867970;29;20403;-81
2021/11/21 02:58:18;;;;;;;18.53;11.40;;;6.90;99.90;;;;;;4854381;29;20386;-81
2021/11/21 03:00:45;;;;;;;18.17;11.00;;;6.90;99.90;;;;;;4864452;29;20471;-81
2021/11/21 03:03:35;;;;;;;15.70;9.43;;;6.60;99.90;;;;;;4835051;29;20436;-80
2021/11/21 03:06:09;;;;;;;16.17;11.20;;;6.70;99.90;;;;;;4814275;29;20426;-80
2021/11/21 03:08:40;;;;;;;15.37;10.20;;;6.90;99.90;;;;;;4812576;29;20432;-80
2021/11/21 03:11:29;;;;;;;18.50;11.87;;;7.00;99.90;;;;;;4827768;29;20406;-80
2021/11/21 03:14:19;;;;;;;16.80;11.50;;;7.10;99.90;;;;;;4827212;29;20509;-80
2021/11/21 03:16:50;;;;;;;16.53;11.50;;;7.10;99.90;;;;;;4845286;29;20387;-79
2021/11/21 03:19:19;;;;;;;16.03;11.47;;;7.00;99.90;;;;;;4822982;29;20432;-78
2021/11/21 03:21:45;;;;;;;13.50;10.60;;;7.10;99.90;;;;;;4841067;29;20412;-79
2021/11/21 03:24:15;;;;;;;18.13;10.80;;;7.20;99.90;;;;;;4853747;29;20424;-79
2021/11/21 03:26:49;;;;;;;17.07;10.77;;;7.10;99.90;;;;;;4856874;29;20421;-78
2021/11/21 03:29:24;;;;;;;15.63;11.80;;;7.10;99.90;;;;;;4829870;29;20461;-80
2021/11/21 03:31:59;;;;;;;19.87;14.20;;;6.80;99.90;;;;;;4829576;29;20387;-80
2021/11/21 03:34:30;;;;;;;18.80;12.10;;;6.60;99.90;;;;;;4833598;29;20769;-80
2021/11/21 03:36:57;;;;;;;16.10;10.43;;;6.50;99.90;;;;;;4856407;29;20430;-80
2021/11/21 03:39:31;;;;;;;18.13;12.10;;;6.40;99.90;;;;;;4888473;29;20382;-80
2021/11/21 03:42:16;;;;;;;18.60;12.57;;;6.60;99.90;;;;;;4874015;29;20389;-80
2021/11/21 03:45:37;;;;;;;16.30;9.93;;;6.60;99.90;;;;;;4866529;29;20380;-80
2021/11/21 03:48:05;;;;;;;15.37;11.30;;;6.50;99.90;;;;;;4821801;29;20526;-81
2021/11/21 03:50:34;;;;;;;16.33;11.73;;;6.70;99.90;;;;;;4874965;29;20988;-80
2021/11/21 03:53:03;;;;;;;16.97;11.53;;;6.70;99.90;;;;;;4907734;29;20393;-80
2021/11/21 03:55:32;;;;;;;15.23;11.30;;;6.70;99.90;;;;;;4918916;29;20396;-80
2021/11/21 03:58:02;;;;;;;16.70;12.00;;;6.40;99.90;;;;;;4906296;29;20385;-80
2021/11/21 04:00:46;;;;;;;14.90;10.53;;;6.40;99.90;;;;;;4882236;29;20387;-80
2021/11/21 04:03:32;;;;;;;15.13;10.60;;;6.50;99.90;;;;;;4903137;29;20376;-79
2021/11/21 04:05:59;;;;;;;17.17;11.00;;;6.40;99.90;;;;;;4962184;29;20830;-80
2021/11/21 04:08:26;;;;;;;28.83;13.73;;;6.40;99.90;;;;;;4964114;29;20423;-79
2021/11/21 04:11:03;;;;;;;17.60;12.17;;;6.30;99.90;;;;;;4902638;29;20410;-80
2021/11/21 04:13:36;;;;;;;19.43;12.67;;;6.20;99.90;;;;;;4911382;29;20446;-80
2021/11/21 04:16:03;;;;;;;20.80;12.57;;;6.50;99.90;;;;;;4879508;29;20444;-80
2021/11/21 04:18:59;;;;;;;20.23;13.83;;;6.50;99.90;;;;;;4926382;29;20470;-80
2021/11/21 04:21:27;;;;;;;18.80;9.80;;;6.20;99.90;;;;;;4909761;29;20474;-80
2021/11/21 04:24:08;;;;;;;16.83;12.17;;;6.20;99.90;;;;;;4861912;29;20404;-80
2021/11/21 04:26:36;;;;;;;21.67;12.20;;;6.30;99.90;;;;;;4859393;29;20417;-80
2021/11/21 04:29:33;;;;;;;21.40;12.40;;;6.50;99.90;;;;;;4890444;29;20472;-79
2021/11/21 04:32:05;;;;;;;23.53;12.17;;;6.50;99.90;;;;;;4857473;29;20492;-80
2021/11/21 04:34:57;;;;;;;21.27;11.87;;;6.40;99.90;;;;;;4869983;29;20490;-80
2021/11/21 04:37:26;;;;;;;20.40;12.23;;;6.50;99.90;;;;;;4913218;29;20431;-80
2021/11/21 04:39:55;;;;;;;21.50;11.97;;;6.30;99.90;;;;;;4930636;29;20543;-80
2021/11/21 04:42:32;;;;;;;20.90;12.00;;;6.30;99.90;;;;;;4959236;29;20900;-80
2021/11/21 04:45:21;;;;;;;21.30;12.47;;;6.30;99.90;;;;;;4958163;29;20426;-81
2021/11/21 04:47:49;;;;;;;17.10;11.93;;;6.10;99.90;;;;;;4922583;29;20434;-80
2021/11/21 04:50:21;;;;;;;18.00;12.33;;;6.00;99.90;;;;;;4953376;29;20851;-80
2021/11/21 04:52:57;;;;;;;19.03;14.60;;;5.90;99.90;;;;;;4937114;29;20210;-81
2021/11/21 04:55:26;;;;;;;19.50;10.80;;;6.20;99.90;;;;;;4952269;29;20391;-79
2021/11/21 04:58:01;;;;;;;23.57;14.03;;;5.90;99.90;;;;;;4968627;29;20422;-79
2021/11/21 05:00:29;;;;;;;18.07;13.20;;;5.90;99.90;;;;;;4895306;29;20404;-80
2021/11/21 05:02:56;;;;;;;20.37;11.87;;;6.20;99.90;;;;;;4864408;29;20437;-80
2021/11/21 05:05:51;;;;;;;29.40;14.10;;;6.20;99.90;;;;;;4840401;29;20534;-81
2021/11/21 05:08:22;;;;;;;18.20;11.67;;;6.30;99.90;;;;;;4858610;29;20486;-80
2021/11/21 05:11:11;;;;;;;16.67;12.70;;;6.60;99.90;;;;;;4836837;29;20422;-80
2021/11/21 05:13:41;;;;;;;28.00;13.50;;;6.70;99.90;;;;;;4848773;29;20411;-79
2021/11/21 05:16:10;;;;;;;19.00;12.47;;;6.90;99.90;;;;;;4827720;29;20404;-80
2021/11/21 05:18:49;;;;;;;19.03;11.70;;;6.80;99.90;;;;;;4832018;29;20429;-80
2021/11/21 05:21:22;;;;;;;21.30;12.60;;;6.80;99.90;;;;;;4836637;29;20459;-80
2021/11/21 05:23:52;;;;;;;21.80;12.57;;;6.80;99.90;;;;;;4822560;29;20414;-80
2021/11/21 05:26:41;;;;;;;26.37;13.40;;;6.50;99.90;;;;;;4854833;29;20428;-80
2021/11/21 05:29:08;;;;;;;30.17;14.03;;;6.40;99.90;;;;;;4873135;29;20897;-80
2021/11/21 05:32:16;;;;;;;22.80;13.50;;;6.30;99.90;;;;;;4853963;29;20429;-80
2021/11/21 05:35:07;;;;;;;21.87;12.63;;;6.30;99.90;;;;;;4835912;29;20753;-81
2021/11/21 05:37:58;;;;;;;20.43;12.13;;;6.20;99.90;;;;;;4799714;30;20472;-80
2021/11/21 05:40:31;;;;;;;18.13;10.93;;;6.10;99.90;;;;;;4800713;29;20503;-80
2021/11/21 05:43:05;;;;;;;16.30;10.50;;;6.20;99.90;;;;;;4781801;30;20526;-80
2021/11/21 05:45:35;;;;;;;22.33;13.43;;;6.20;99.90;;;;;;4781280;30;20410;-80
2021/11/21 05:48:24;;;;;;;21.77;12.47;;;6.20;99.90;;;;;;4780206;29;20483;-80
2021/11/21 05:50:52;;;;;;;19.80;11.13;;;6.30;99.90;;;;;;4813954;29;20568;-80
2021/11/21 05:53:23;;;;;;;20.27;11.80;;;6.30;99.90;;;;;;4798820;29;20506;-80
2021/11/21 05:56:02;;;;;;;18.40;11.63;;;6.30;99.90;;;;;;4769715;29;20411;-80
2021/11/21 05:58:57;;;;;;;19.77;12.40;;;6.30;99.90;;;;;;4793193;30;20455;-80
2021/11/21 06:01:32;;;;;;;15.87;11.23;;;6.30;99.90;;;;;;4761431;30;20403;-80
2021/11/21 06:04:24;;;;;;;18.67;11.57;;;6.20;99.90;;;;;;4760697;30;20429;-80
2021/11/21 06:06:53;;;;;;;18.10;10.43;;;6.20;99.90;;;;;;4798327;29;20436;-80
2021/11/21 06:09:32;;;;;;;16.57;11.50;;;6.30;99.90;;;;;;4815887;29;20425;-80
2021/11/21 06:12:19;;;;;;;17.00;10.80;;;6.30;99.90;;;;;;4780806;30;20448;-80
2021/11/21 06:14:46;;;;;;;19.70;10.03;;;6.20;99.90;;;;;;4713546;30;20445;-80
2021/11/21 06:17:17;;;;;;;12.97;9.20;;;6.30;99.90;;;;;;4755371;30;20384;-80
2021/11/21 06:19:46;;;;;;;21.73;10.90;;;6.40;99.90;;;;;;4748395;30;21015;-81
2021/11/21 06:22:13;;;;;;;22.70;11.10;;;6.50;99.90;;;;;;4758333;30;20596;-80
2021/11/21 06:24:45;;;;;;;16.70;12.47;;;6.70;99.90;;;;;;4744502;30;20422;-80
2021/11/21 06:27:26;;;;;;;20.07;12.63;;;6.70;99.90;;;;;;4756355;30;20427;-80
2021/11/21 06:29:53;;;;;;;18.83;11.87;;;6.40;99.90;;;;;;4780308;30;20464;-80
2021/11/21 06:32:25;;;;;;;21.10;12.50;;;6.20;99.90;;;;;;4780480;30;20186;-80
2021/11/21 06:35:21;;;;;;;20.27;11.70;;;6.40;99.90;;;;;;4762476;30;20409;-80
2021/11/21 06:37:53;;;;;;;18.40;11.50;;;6.60;99.90;;;;;;4770215;30;20488;-80
2021/11/21 06:40:21;;;;;;;17.17;10.23;;;6.60;99.90;;;;;;4747638;30;20441;-80
2021/11/21 06:42:50;;;;;;;16.67;12.00;;;6.40;99.90;;;;;;4744940;30;20251;-80
2021/11/21 06:45:19;;;;;;;17.07;10.93;;;6.40;99.90;;;;;;4717875;30;20417;-80
2021/11/21 06:47:50;;;;;;;16.40;10.23;;;6.40;99.90;;;;;;4727358;30;20224;-80
2021/11/21 06:50:32;;;;;;;20.90;10.80;;;6.10;99.90;;;;;;4713944;30;20555;-80
2021/11/21 06:52:58;;;;;;;21.17;11.70;;;5.90;99.90;;;;;;4792727;29;20454;-80
2021/11/21 06:55:27;;;;;;;18.83;11.00;;;5.80;99.90;;;;;;4860619;29;20390;-80
2021/11/21 06:58:00;;;;;;;17.77;9.47;;;5.90;99.90;;;;;;4871736;29;20522;-80
2021/11/21 07:00:28;;;;;;;23.60;11.27;;;6.00;99.90;;;;;;4871405;29;20402;-80
2021/11/21 07:03:18;;;;;;;15.23;10.13;;;6.00;99.90;;;;;;4870371;29;20409;-80
2021/11/21 07:05:51;;;;;;;20.90;12.20;;;6.20;99.90;;;;;;4884035;29;20423;-80
2021/11/21 07:08:19;;;;;;;18.27;10.53;;;6.00;99.90;;;;;;4889864;29;20428;-80
2021/11/21 07:10:46;;;;;;;18.53;11.33;;;6.00;99.90;;;;;;4897319;29;20473;-80
2021/11/21 07:13:13;;;;;;;20.30;11.10;;;5.90;99.90;;;;;;4923242;28;20424;-79
2021/11/21 07:15:40;;;;;;;19.73;11.90;;;6.10;99.90;;;;;;4962141;28;20418;-79
2021/11/21 07:18:06;;;;;;;21.43;12.90;;;6.20;99.90;;;;;;4980176;28;20952;-80
2021/11/21 07:20:35;;;;;;;16.83;11.57;;;6.00;99.90;;;;;;4976470;28;20408;-80
2021/11/21 07:23:11;;;;;;;25.77;10.67;;;6.00;99.90;;;;;;4967222;28;20445;-80
2021/11/21 07:25:37;;;;;;;20.97;12.87;;;6.10;99.90;;;;;;4968412;28;20377;-80
2021/11/21 07:28:03;;;;;;;17.77;10.53;;;6.00;99.90;;;;;;4967630;28;20418;-79
2021/11/21 07:30:30;;;;;;;18.57;10.93;;;5.90;99.90;;;;;;4984903;28;20452;-80
2021/11/21 07:32:59;;;;;;;21.23;11.80;;;6.20;99.90;;;;;;5004565;28;20429;-80
2021/11/21 07:35:34;;;;;;;20.50;11.53;;;6.30;99.90;;;;;;5013485;28;20467;-80
2021/11/21 07:38:03;;;;;;;25.87;12.93;;;6.50;99.90;;;;;;5009343;28;20416;-80
2021/11/21 07:40:59;;;;;;;32.00;13.30;;;6.50;99.90;;;;;;4966941;28;20206;-81
2021/11/21 07:43:27;;;;;;;20.43;12.57;;;6.70;99.90;;;;;;4985581;28;20389;-78
2021/11/21 07:45:54;;;;;;;17.60;11.23;;;6.50;99.90;;;;;;4953720;29;20413;-80
2021/11/21 07:48:20;;;;;;;22.70;10.97;;;6.20;99.90;;;;;;4980037;28;20431;-80
2021/11/21 07:50:46;;;;;;;17.77;12.07;;;6.20;99.90;;;;;;5008495;28;20413;-81
2021/11/21 07:53:12;;;;;;;21.97;12.60;;;6.30;99.90;;;;;;4991821;28;20424;-80
2021/11/21 07:55:38;;;;;;;20.53;13.63;;;6.40;99.90;;;;;;5007580;28;20440;-80
2021/11/21 07:58:04;;;;;;;22.60;13.40;;;6.60;99.90;;;;;;5008316;28;20212;-80
2021/11/21 08:00:30;;;;;;;20.30;11.90;;;6.80;99.90;;;;;;5008626;28;20170;-80
2021/11/21 08:02:57;;;;;;;24.87;13.20;;;6.90;99.90;;;;;;5006131;28;20721;-81
2021/11/21 08:05:23;;;;;;;19.67;12.63;;;7.00;99.90;;;;;;4988766;28;20662;-80
2021/11/21 08:07:49;;;;;;;16.07;11.50;;;7.10;99.90;;;;;;4988160;28;20428;-80
2021/11/21 08:10:18;;;;;;;20.13;13.87;;;7.10;99.90;;;;;;4969020;28;20578;-80
2021/11/21 08:12:44;;;;;;;27.20;14.77;;;7.10;99.90;;;;;;4974133;28;20392;-79
2021/11/21 08:15:10;;;;;;;24.73;13.70;;;7.20;99.90;;;;;;5008012;28;20478;-80
2021/11/21 08:17:37;;;;;;;23.63;12.50;;;7.30;99.90;;;;;;5008772;28;20376;-79
2021/11/21 08:20:04;;;;;;;19.07;13.17;;;7.20;99.90;;;;;;5016150;28;20424;-80
2021/11/21 08:22:30;;;;;;;20.87;11.40;;;6.90;99.90;;;;;;5015693;28;20432;-80
2021/11/21 08:24:56;;;;;;;19.70;12.60;;;7.00;99.90;;;;;;5030619;28;20386;-79
2021/11/21 08:27:28;;;;;;;26.63;14.33;;;7.00;99.90;;;;;;5027666;28;20436;-79
2021/11/21 08:29:54;;;;;;;21.60;14.53;;;7.10;99.90;;;;;;5014819;28;20797;-79
2021/11/21 08:32:23;;;;;;;19.07;12.80;;;7.10;99.90;;;;;;5040147;28;20794;-79
2021/11/21 08:34:49;;;;;;;22.80;11.70;;;7.10;99.90;;;;;;5000599;28;21028;-80
2021/11/21 08:37:15;;;;;;;17.80;10.87;;;6.60;99.90;;;;;;5031380;28;20427;-80
2021/11/21 08:39:42;;;;;;;26.70;11.90;;;6.40;99.90;;;;;;5049809;28;20407;-80
2021/11/21 08:42:07;;;;;;;18.80;10.93;;;6.30;99.90;;;;;;5050547;28;20506;-80
2021/11/21 08:44:35;;;;;;;16.33;10.40;;;6.40;99.90;;;;;;5034361;28;20398;-80
2021/11/21 08:47:01;;;;;;;21.07;13.67;;;6.60;99.90;;;;;;5055637;28;20245;-79
2021/11/21 08:49:27;;;;;;;24.27;13.43;;;6.70;99.90;;;;;;5064097;28;20500;-79
2021/11/21 08:51:54;;;;;;;23.67;12.30;;;6.80;99.90;;;;;;5046789;28;20458;-80
2021/11/21 08:54:19;;;;;;;22.30;11.97;;;6.80;99.90;;;;;;5066654;28;20178;-82
2021/11/21 08:56:47;;;;;;;20.40;11.37;;;6.90;99.90;;;;;;5065388;28;20377;-81
2021/11/21 08:59:14;;;;;;;18.70;11.57;;;6.90;99.90;;;;;;5067942;28;20173;-80
2021/11/21 09:01:42;;;;;;;19.40;11.17;;;6.90;99.90;;;;;;5067540;28;20869;-81
2021/11/21 09:04:08;;;;;;;19.60;10.50;;;6.90;99.90;;;;;;5102075;28;20915;-81
2021/11/21 09:06:59;;;;;;;21.73;10.90;;;6.60;99.90;;;;;;5108213;28;20407;-79
2021/11/21 09:09:30;;;;;;;25.47;11.40;;;6.60;99.90;;;;;;5015470;28;20478;-79
2021/11/21 09:12:17;;;;;;;16.33;10.60;;;6.80;99.90;;;;;;4985758;28;20438;-79
2021/11/21 09:14:44;;;;;;;21.27;10.57;;;6.80;99.90;;;;;;4965667;29;20438;-79
2021/11/21 09:17:15;;;;;;;17.63;10.97;;;6.90;99.90;;;;;;4947670;29;20418;-80
2021/11/21 09:19:47;;;;;;;15.20;9.60;;;6.90;99.90;;;;;;4928555;29;20428;-80
2021/11/21 09:22:35;;;;;;;19.57;11.20;;;6.90;99.90;;;;;;4911417;29;20469;-79
2021/11/21 09:25:08;;;;;;;13.23;8.90;;;7.00;99.90;;;;;;4966331;29;20390;-79
2021/11/21 09:27:41;;;;;;;16.93;10.00;;;6.70;99.90;;;;;;4937686;29;20389;-79
2021/11/21 09:30:13;;;;;;;16.27;9.70;;;6.40;99.90;;;;;;4923394;29;20429;-79
2021/11/21 09:32:41;;;;;;;21.17;10.10;;;6.10;99.90;;;;;;4954318;29;20400;-78
2021/11/21 09:35:16;;;;;;;15.03;9.83;;;6.30;99.90;;;;;;4956007;29;20419;-81
2021/11/21 09:38:09;;;;;;;20.63;11.00;;;6.60;99.90;;;;;;4918787;29;20412;-80
2021/11/21 09:40:45;;;;;;;15.73;10.77;;;6.80;99.90;;;;;;4895069;29;20417;-80
2021/11/21 09:43:11;;;;;;;14.83;9.43;;;6.90;99.90;;;;;;4929306;29;20415;-79
2021/11/21 09:45:37;;;;;;;21.20;10.43;;;6.60;99.90;;;;;;4941150;29;20390;-81
2021/11/21 09:48:05;;;;;;;12.30;10.33;;;6.60;99.90;;;;;;4940941;29;20464;-81
2021/11/21 09:50:41;;;;;;;17.73;10.83;;;6.90;99.90;;;;;;4959901;29;20191;-80
2021/11/21 09:53:30;;;;;;;19.27;10.23;;;7.00;99.90;;;;;;4902754;29;20899;-81
2021/11/21 09:56:18;;;;;;;22.17;11.23;;;6.70;99.90;;;;;;4889271;29;20446;-79
2021/11/21 09:59:11;;;;;;;16.63;9.00;;;6.70;99.90;;;;;;4822295;29;20417;-81
2021/11/21 10:01:43;;;;;;;18.77;10.60;;;6.50;99.90;;;;;;4817077;29;20478;-81
2021/11/21 10:04:12;;;;;;;17.07;9.50;;;6.60;99.90;;;;;;4815000;29;20403;-82
2021/11/21 10:06:49;;;;;;;18.27;10.53;;;6.60;99.90;;;;;;4827644;29;20513;-82
2021/11/21 10:09:19;;;;;;;13.13;8.23;;;6.50;99.90;;;;;;4881713;29;20514;-81
2021/11/21 10:12:04;;;;;;;13.10;7.73;;;6.50;99.90;;;;;;4904890;29;20432;-83
2021/11/21 10:14:32;;;;;;;17.87;8.97;;;6.50;99.90;;;;;;4908487;29;20909;-81
2021/11/21 10:16:58;;;;;;;14.07;8.33;;;6.40;99.90;;;;;;4910527;29;20418;-83
2021/11/21 10:19:24;;;;;;;15.70;9.57;;;6.30;99.90;;;;;;4928754;29;20387;-83
2021/11/21 10:21:53;;;;;;;16.70;10.20;;;6.50;99.90;;;;;;4927618;29;20855;-83
2021/11/21 10:24:24;;;;;;;14.17;8.50;;;6.80;99.90;;;;;;4927566;29;20193;-82
2021/11/21 10:27:09;;;;;;;16.70;10.30;;;6.90;99.90;;;;;;4928634;29;20413;-80
2021/11/21 10:29:38;;;;;;;13.57;8.50;;;6.90;99.90;;;;;;4932918;29;20484;-81
2021/11/21 10:32:26;;;;;;;13.67;9.27;;;6.60;99.90;;;;;;4939233;28;20460;-80
2021/11/21 10:34:56;;;;;;;15.97;10.40;;;6.40;99.90;;;;;;5002856;28;20372;-80
2021/11/21 10:37:40;;;;;;;16.73;9.40;;;6.30;99.90;;;;;;5048921;28;20439;-81
2021/11/21 10:40:11;;;;;;;12.80;9.60;;;6.70;99.90;;;;;;5049701;28;20411;-81
2021/11/21 10:42:39;;;;;;;17.60;9.10;;;6.50;99.90;;;;;;5062039;28;20459;-80
2021/11/21 10:45:07;;;;;;;15.73;8.27;;;6.40;99.90;;;;;;5086332;28;20409;-80
2021/11/21 10:47:45;;;;;;;13.53;9.43;;;6.30;99.90;;;;;;5095879;28;20435;-80
2021/11/21 10:50:14;;;;;;;19.07;9.33;;;6.30;99.90;;;;;;5110207;28;20407;-81
2021/11/21 10:52:48;;;;;;;17.97;9.70;;;6.40;99.90;;;;;;5109615;28;20364;-79
2021/11/21 10:55:16;;;;;;;16.00;11.67;;;6.70;99.90;;;;;;5110881;28;20398;-81
2021/11/21 10:57:42;;;;;;;14.73;9.90;;;6.80;99.90;;;;;;5110791;28;20372;-80
2021/11/21 11:00:18;;;;;;;18.17;11.07;;;6.60;99.90;;;;;;5107538;28;20382;-80
2021/11/21 11:02:48;;;;;;;14.60;10.43;;;6.60;99.90;;;;;;5092612;28;20472;-80
2021/11/21 11:05:21;;;;;;;14.07;9.03;;;6.70;99.90;;;;;;5109908;28;20401;-80
2021/11/21 11:07:53;;;;;;;22.73;10.90;;;6.70;99.90;;;;;;5110211;28;20394;-80
2021/11/21 11:10:24;;;;;;;16.13;8.93;;;6.60;99.90;;;;;;5109761;28;20900;-80
2021/11/21 11:12:53;;;;;;;17.30;10.87;;;6.50;99.90;;;;;;5108310;28;20457;-80
2021/11/21 11:15:21;;;;;;;17.20;11.20;;;6.70;99.90;;;;;;5107723;28;20438;-80
2021/11/21 11:17:48;;;;;;;16.23;10.87;;;6.40;99.90;;;;;;5073605;28;20547;-79
2021/11/21 11:20:40;;;;;;;13.63;8.33;;;6.50;99.90;;;;;;5109507;28;20761;-80
2021/11/21 11:23:17;;;;;;;19.40;10.77;;;6.40;99.90;;;;;;5024085;28;20439;-80
2021/11/21 11:25:46;;;;;;;23.03;12.50;;;6.50;99.90;;;;;;5005776;28;20387;-81
2021/11/21 11:28:26;;;;;;;20.53;11.40;;;6.60;99.90;;;;;;4989923;28;20410;-80
2021/11/21 11:31:37;;;;;;;21.90;11.40;;;6.80;99.90;;;;;;4968688;28;20552;-80
2021/11/21 11:34:35;;;;;;;16.80;11.70;;;6.80;99.90;;;;;;4908476;29;20940;-81
2021/11/21 11:37:10;;;;;;;13.03;9.27;;;6.80;99.90;;;;;;4927306;29;20401;-81
2021/11/21 11:40:00;;;;;;;16.10;10.03;;;6.60;99.90;;;;;;4909059;29;20436;-80
2021/11/21 11:42:37;;;;;;;13.70;9.00;;;6.40;99.90;;;;;;4871329;29;20428;-80
2021/11/21 11:45:08;;;;;;;14.77;9.00;;;6.40;99.90;;;;;;4872727;29;20415;-81
2021/11/21 11:47:35;;;;;;;14.93;10.97;;;6.50;99.90;;;;;;4896165;29;20458;-79
2021/11/21 11:50:01;;;;;;;17.30;10.03;;;6.50;99.90;;;;;;4894892;29;20460;-80
2021/11/21 11:52:57;;;;;;;16.80;9.00;;;6.70;99.90;;;;;;4880544;29;20382;-80
2021/11/21 11:55:27;;;;;;;11.63;8.60;;;6.70;99.90;;;;;;4894691;29;20393;-80
2021/11/21 11:57:54;;;;;;;12.37;8.27;;;6.60;99.90;;;;;;4881443;29;20404;-80
2021/11/21 12:00:40;;;;;;;14.23;9.70;;;6.60;99.90;;;;;;4898765;29;20419;-80
2021/11/21 12:03:39;;;;;;;16.10;8.20;;;6.70;99.90;;;;;;4909280;29;20452;-80
2021/11/21 12:06:05;;;;;;;12.23;8.57;;;6.60;99.90;;;;;;4921493;29;20433;-81
2021/11/21 12:08:32;;;;;;;17.47;8.80;;;6.80;99.90;;;;;;4954943;29;20422;-81
2021/11/21 12:10:58;;;;;;;14.33;7.40;;;7.00;99.90;;;;;;4958028;29;20439;-80
2021/11/21 12:13:34;;;;;;;13.93;8.90;;;6.80;99.90;;;;;;4950524;28;20822;-80
2021/11/21 12:16:03;;;;;;;13.60;8.30;;;6.60;99.90;;;;;;4978611;28;20414;-80
2021/11/21 12:18:54;;;;;;;15.00;8.97;;;6.60;99.90;;;;;;5010085;28;20412;-81
2021/11/21 12:21:33;;;;;;;12.10;8.50;;;6.60;99.90;;;;;;5018189;28;20427;-81
2021/11/21 12:24:01;;;;;;;12.50;7.57;;;6.60;99.90;;;;;;5019708;28;20401;-81
2021/11/21 12:26:35;;;;;;;11.27;7.50;;;6.60;99.90;;;;;;5017616;28;20397;-81
2021/11/21 12:29:06;;;;;;;11.00;6.83;;;6.70;99.90;;;;;;5018076;28;20523;-81
2021/11/21 12:31:38;;;;;;;13.37;7.67;;;6.60;99.90;;;;;;5025890;28;20414;-81
2021/11/21 12:34:40;;;;;;;11.30;7.30;;;6.60;99.90;;;;;;5099848;28;20440;-81
2021/11/21 12:37:21;;;;;;;17.53;7.40;;;6.60;99.90;;;;;;5099293;28;20403;-81
2021/11/21 12:39:50;;;;;;;12.23;7.10;;;6.80;99.90;;;;;;5100236;28;20783;-81
2021/11/21 12:42:23;;;;;;;13.70;7.40;;;6.90;99.90;;;;;;5100097;28;20379;-81
2021/11/21 12:44:49;;;;;;;16.77;9.60;;;6.90;99.90;;;;;;5099865;28;20745;-81
2021/11/21 12:47:15;;;;;;;14.50;9.40;;;6.80;99.90;;;;;;5099096;28;20452;-81
2021/11/21 12:49:43;;;;;;;11.40;7.70;;;6.60;99.90;;;;;;5099364;28;20491;-81
2021/11/21 12:52:15;;;;;;;12.67;8.30;;;6.60;99.90;;;;;;5081115;28;20446;-80
2021/11/21 12:54:41;;;;;;;12.20;8.20;;;6.50;99.90;;;;;;5099543;28;20401;-81
2021/11/21 12:57:08;;;;;;;10.80;6.87;;;6.60;99.90;;;;;;5099774;28;20400;-80
2021/11/21 12:59:55;;;;;;;15.30;7.03;;;6.40;99.90;;;;;;5064384;28;20408;-81
2021/11/21 13:02:25;;;;;;;13.03;7.23;;;6.30;99.90;;;;;;5082332;28;20403;-81
2021/11/21 13:04:56;;;;;;;9.80;7.70;;;6.30;99.90;;;;;;5100056;28;20368;-81
2021/11/21 13:07:35;;;;;;;19.40;7.17;;;6.40;99.90;;;;;;5081105;28;20375;-81
2021/11/21 13:10:13;;;;;;;14.83;8.80;;;6.40;99.90;;;;;;5099142;28;20444;-81
2021/11/21 13:12:45;;;;;;;10.57;6.70;;;6.40;99.90;;;;;;5065458;28;20473;-82
2021/11/21 13:15:15;;;;;;;12.97;7.70;;;6.30;99.90;;;;;;5100023;28;20488;-82
2021/11/21 13:17:44;;;;;;;9.40;7.90;;;6.30;99.90;;;;;;5099978;28;20880;-81